M I D A S
Marine Information and Data Acquisition System
Tripno 672 of the Zeeleeuw from 2004-03-19 07:12:58 to 2004-03-19 13:07:22
Back to CruiseResearch ActivitiesStationsMapUnderway DataData graphs

EquipmentUnitsComment
TimeDGPSUTC
LatitudeDGPSDM.mWGS84
LongitudeDGPSDM.mWGS84
HeadingGyrodeg 
SOGDGPSknotsSpeed over ground
COGDGPSdegCourse over ground
DepthEcho soundermeters200 kHz
Missing or incorrect values are displayed as -999
Navigation data collected by the RV Zeeleeuw from 2004-03-19 07:12:58 to 2004-03-19 13:07:22
                                                                                    Next 1000 lines
Time Latitude Longitude Heading SOG COG Depth
2004-03-19 07:13:03 51°13.59 2°56.103 112.8 1.1 291 6.2
2004-03-19 07:13:09 51°13.592 2°56.099 113.1 1.4 293 6.1
2004-03-19 07:13:14 51°13.593 2°56.095 113.6 2 294 6.1
2004-03-19 07:13:19 51°13.594 2°56.09 114.2 2.3 294 -999
2004-03-19 07:13:25 51°13.596 2°56.084 114.4 2.6 295 -999
2004-03-19 07:13:29 51°13.597 2°56.079 114.8 2.8 295 -999
2004-03-19 07:13:35 51°13.6 2°56.072 115.2 3 295 -999
2004-03-19 07:13:39 51°13.601 2°56.067 115.4 3 296 -999
2004-03-19 07:13:45 51°13.603 2°56.061 115.2 2.5 296 -999
2004-03-19 07:13:49 51°13.604 2°56.057 114.4 2.1 297 -999
2004-03-19 07:13:55 51°13.605 2°56.055 113.9 1.4 295 -999
2004-03-19 07:13:59 51°13.605 2°56.055 113.7 0.2 353 8.4
2004-03-19 07:14:03 51°13.605 2°56.056 114.6 0.7 102 8.4
2004-03-19 07:14:09 51°13.604 2°56.06 117.3 1.5 111 8.3
2004-03-19 07:14:14 51°13.603 2°56.064 120.9 2 113 -999
2004-03-19 07:14:19 51°13.602 2°56.069 125 2.4 118 -999
2004-03-19 07:14:25 51°13.599 2°56.076 128.4 2.8 121 -999
2004-03-19 07:14:30 51°13.597 2°56.081 131.9 3 125 -999
2004-03-19 07:14:35 51°13.594 2°56.086 134 3 125 -999
2004-03-19 07:14:39 51°13.592 2°56.09 135.7 3 127 5.3
2004-03-19 07:14:45 51°13.589 2°56.097 137 3 130 -999
2004-03-19 07:14:50 51°13.586 2°56.102 137.9 3.2 134 7.7
2004-03-19 07:14:53 51°13.584 2°56.105 139.3 3.2 134 8.2
2004-03-19 07:14:59 51°13.58 2°56.111 140.1 3.3 136 8.3
2004-03-19 07:15:03 51°13.577 2°56.115 140.7 3.4 136 8.4
2004-03-19 07:15:09 51°13.573 2°56.121 140.7 3.6 136 8.4
2004-03-19 07:15:14 51°13.569 2°56.127 139.7 3.8 135 8.4
2004-03-19 07:15:19 51°13.566 2°56.133 138.4 3.9 134 8.6
2004-03-19 07:15:23 51°13.562 2°56.139 137.2 4.2 134 8.7
2004-03-19 07:15:29 51°13.557 2°56.147 136.2 4.4 133 8.7
2004-03-19 07:15:34 51°13.553 2°56.155 135.1 4.4 131 8.8
2004-03-19 07:15:39 51°13.55 2°56.162 134 4.3 131 8.9
2004-03-19 07:15:45 51°13.545 2°56.17 132.8 4.2 130 8.9
2004-03-19 07:15:49 51°13.543 2°56.176 131.4 4 126 8.9
2004-03-19 07:15:54 51°13.54 2°56.184 129.7 4 126 8.9
2004-03-19 07:15:59 51°13.538 2°56.192 125.7 4 118 8.8
2004-03-19 07:16:05 51°13.535 2°56.202 119.8 4.1 110 8.9
2004-03-19 07:16:09 51°13.535 2°56.209 113 4 101 8.7
2004-03-19 07:16:14 51°13.534 2°56.217 105.3 3.9 95 8.7
2004-03-19 07:16:19 51°13.534 2°56.226 98.7 3.9 95 8.6
2004-03-19 07:16:24 51°13.535 2°56.233 92.6 3.6 87 8.5
2004-03-19 07:16:29 51°13.536 2°56.24 88.4 3.4 82 8.2
2004-03-19 07:16:33 51°13.536 2°56.244 85.6 2.3 79 8.5
2004-03-19 07:16:39 51°13.537 2°56.248 81.4 1.7 74 8.5
2004-03-19 07:16:43 51°13.538 2°56.249 76.8 1.2 72 8.5
2004-03-19 07:16:49 51°13.538 2°56.25 73 0.3 80 8.5
2004-03-19 07:16:54 51°13.538 2°56.249 70.6 0.1 266 8.5
2004-03-19 07:16:59 51°13.538 2°56.248 68.8 0.5 254 8.5
2004-03-19 07:17:05 51°13.537 2°56.246 67.6 0.9 248 8.5
2004-03-19 07:17:09 51°13.536 2°56.244 67 1.2 245 -999
2004-03-19 07:17:15 51°13.535 2°56.24 66.8 1.4 246 -999
2004-03-19 07:17:19 51°13.535 2°56.237 66.9 1.7 246 -999
2004-03-19 07:17:25 51°13.534 2°56.233 67 1.7 247 -999
2004-03-19 07:17:30 51°13.533 2°56.23 67.4 1.6 247 -999
2004-03-19 07:17:35 51°13.533 2°56.228 68 1.2 252 -999
2004-03-19 07:17:39 51°13.532 2°56.227 67.6 0.5 255 -999
2004-03-19 07:17:45 51°13.533 2°56.227 65.4 0.4 284 -999
2004-03-19 07:17:50 51°13.533 2°56.228 62.1 0.6 37 -999
2004-03-19 07:17:55 51°13.534 2°56.23 58 1.1 40 -999
2004-03-19 07:17:59 51°13.536 2°56.232 52.9 1.6 44 -999
2004-03-19 07:18:05 51°13.538 2°56.236 46.7 2 43 -999
2004-03-19 07:18:10 51°13.54 2°56.238 40.6 2.1 36 -999
2004-03-19 07:18:15 51°13.542 2°56.241 36.6 1.9 33 -999
2004-03-19 07:18:19 51°13.543 2°56.242 34.1 1.2 39 6.3
2004-03-19 07:18:25 51°13.544 2°56.243 31 0.7 33 -999
2004-03-19 07:18:30 51°13.544 2°56.243 28.9 0.2 96 -999
2004-03-19 07:18:34 51°13.543 2°56.242 27.1 0.4 191 8.5
2004-03-19 07:18:39 51°13.542 2°56.242 25.9 0.9 197 -999
2004-03-19 07:18:45 51°13.54 2°56.241 25 1 199 8.5
2004-03-19 07:18:49 51°13.538 2°56.24 24 1.4 198 -999
2004-03-19 07:18:55 51°13.536 2°56.239 23.1 1.5 198 -999
2004-03-19 07:18:59 51°13.534 2°56.238 21.7 1.6 195 -999
2004-03-19 07:19:05 51°13.531 2°56.237 20.5 1.6 195 -999
2004-03-19 07:19:10 51°13.529 2°56.236 19.5 1.7 193 -999
2004-03-19 07:19:15 51°13.527 2°56.235 18.8 1.6 194 -999
2004-03-19 07:19:19 51°13.526 2°56.234 18.6 1.5 193 -999
2004-03-19 07:19:25 51°13.525 2°56.234 18.2 0.7 196 -999
2004-03-19 07:19:30 51°13.526 2°56.234 16.1 0.3 7 5.4
2004-03-19 07:19:35 51°13.527 2°56.234 11.5 0.6 358 -999
2004-03-19 07:19:39 51°13.528 2°56.234 6.5 0.9 2 -999
2004-03-19 07:19:45 51°13.53 2°56.233 2.6 1.1 359 -999
2004-03-19 07:19:50 51°13.532 2°56.233 357.8 1.5 356 -999
2004-03-19 07:19:55 51°13.534 2°56.232 353.3 1.5 354 -999
2004-03-19 07:19:59 51°13.536 2°56.232 348.9 1.4 350 -999
2004-03-19 07:20:05 51°13.537 2°56.232 346.6 0.6 8 -999
2004-03-19 07:20:10 51°13.537 2°56.232 343.9 0.3 16 -999
2004-03-19 07:20:15 51°13.536 2°56.233 341.2 0.3 103 -999
2004-03-19 07:20:19 51°13.536 2°56.234 339 0.6 138 -999
2004-03-19 07:20:25 51°13.534 2°56.236 337.5 1.2 141 5.4
2004-03-19 07:20:29 51°13.532 2°56.237 336.3 1.5 146 8.5
2004-03-19 07:20:34 51°13.53 2°56.239 335.2 1.5 144 -999
2004-03-19 07:20:39 51°13.529 2°56.24 334.7 0.9 150 -999
2004-03-19 07:20:45 51°13.529 2°56.24 333.8 0.3 5 -999
2004-03-19 07:20:49 51°13.53 2°56.239 330.2 0.8 326 -999
2004-03-19 07:20:55 51°13.532 2°56.238 324.2 0.9 329 -999
2004-03-19 07:20:59 51°13.532 2°56.237 319.3 0.9 326 -999
2004-03-19 07:21:05 51°13.534 2°56.236 316.4 0.9 325 -999
2004-03-19 07:21:10 51°13.534 2°56.234 313.5 0.9 316 -999
2004-03-19 07:21:15 51°13.535 2°56.233 310.5 0.9 317 -999
2004-03-19 07:21:19 51°13.536 2°56.232 308.4 0.9 310 8.5
2004-03-19 07:21:25 51°13.536 2°56.23 305.8 1 310 8.5
2004-03-19 07:21:29 51°13.537 2°56.228 304 1 299 8.5
2004-03-19 07:21:34 51°13.538 2°56.226 301.9 1 299 8.6
2004-03-19 07:21:39 51°13.538 2°56.225 299.4 0.9 293 8.6
2004-03-19 07:21:43 51°13.538 2°56.223 297.3 1 288 8.6
2004-03-19 07:21:49 51°13.538 2°56.22 295.9 1.1 283 8.6
2004-03-19 07:21:54 51°13.539 2°56.217 293.9 1.3 284 8.5
2004-03-19 07:21:59 51°13.539 2°56.214 292.9 1.4 283 8.7
2004-03-19 07:22:05 51°13.54 2°56.21 292.7 1.5 284 8.7
2004-03-19 07:22:09 51°13.54 2°56.208 293.2 1.5 289 8.7
2004-03-19 07:22:14 51°13.541 2°56.205 294.3 1.5 289 8.7
2004-03-19 07:22:19 51°13.542 2°56.202 295.4 1.5 292 8.6
2004-03-19 07:22:24 51°13.543 2°56.199 296.5 1.5 293 8.7
2004-03-19 07:22:29 51°13.544 2°56.196 297.7 1.4 295 8.7
2004-03-19 07:22:33 51°13.545 2°56.193 298.9 1.5 296 8.7
2004-03-19 07:22:39 51°13.546 2°56.19 299.6 1.5 299 8.7
2004-03-19 07:22:43 51°13.547 2°56.188 300.4 1.5 300 8.6
2004-03-19 07:22:49 51°13.548 2°56.184 300.7 1.5 301 8.4
2004-03-19 07:22:53 51°13.549 2°56.182 300.9 1.5 300 8.6
2004-03-19 07:22:59 51°13.551 2°56.178 301 1.5 301 8.7
2004-03-19 07:23:05 51°13.552 2°56.175 301 1.5 299 8.7
2004-03-19 07:23:09 51°13.552 2°56.172 300.8 1.5 299 8.8
2004-03-19 07:23:14 51°13.553 2°56.169 300.6 1.5 297 8.7
2004-03-19 07:23:19 51°13.554 2°56.166 300.5 1.5 297 8.7
2004-03-19 07:23:25 51°13.555 2°56.163 300.5 1.5 297 8.7
2004-03-19 07:23:29 51°13.556 2°56.161 300.7 1.5 298 8.7
2004-03-19 07:23:34 51°13.557 2°56.158 301.2 1.5 297 8.7
2004-03-19 07:23:39 51°13.558 2°56.155 301.6 1.4 299 8.6
2004-03-19 07:23:45 51°13.56 2°56.152 302 1.4 299 8.7
2004-03-19 07:23:49 51°13.56 2°56.15 302.6 1.4 300 8.6
2004-03-19 07:23:55 51°13.562 2°56.147 302.9 1.4 300 8.7
2004-03-19 07:23:59 51°13.563 2°56.144 303.1 1.4 301 8.7
2004-03-19 07:24:05 51°13.564 2°56.141 303.2 1.4 300 8.6
2004-03-19 07:24:09 51°13.564 2°56.139 303.2 1.3 300 8.7
2004-03-19 07:24:14 51°13.565 2°56.136 303.1 1.3 300 8.6
2004-03-19 07:24:19 51°13.566 2°56.134 302.8 1.3 300 8.7
2004-03-19 07:24:25 51°13.567 2°56.131 302.6 1.3 299 8.8
2004-03-19 07:24:29 51°13.568 2°56.129 302.4 1.3 298 8.7
2004-03-19 07:24:33 51°13.568 2°56.127 301.8 1.3 296 8.7
2004-03-19 07:24:39 51°13.569 2°56.124 301.2 1.3 296 8.7
2004-03-19 07:24:45 51°13.571 2°56.12 300.5 1.4 297 8.7
2004-03-19 07:24:49 51°13.571 2°56.117 300.3 1.7 294 8.7
2004-03-19 07:24:54 51°13.572 2°56.114 300.6 1.7 294 8.8
2004-03-19 07:24:59 51°13.573 2°56.111 301.5 1.6 295 8.8
2004-03-19 07:25:05 51°13.575 2°56.107 302 1.6 298 8.8
2004-03-19 07:25:09 51°13.575 2°56.104 302.2 1.6 295 8.8
2004-03-19 07:25:14 51°13.576 2°56.101 302.2 1.6 298 8.7
2004-03-19 07:25:19 51°13.577 2°56.098 302.2 1.6 298 8.7
2004-03-19 07:25:25 51°13.578 2°56.094 302.1 1.6 298 8.7
2004-03-19 07:25:29 51°13.579 2°56.091 302.3 1.6 296 8.8
2004-03-19 07:25:34 51°13.58 2°56.088 302.3 1.7 298 8.8
2004-03-19 07:25:39 51°13.581 2°56.085 302.4 1.7 297 8.8
2004-03-19 07:25:45 51°13.582 2°56.081 302.8 1.7 300 8.6
2004-03-19 07:25:49 51°13.583 2°56.079 303.5 1.6 301 8.5
2004-03-19 07:25:54 51°13.584 2°56.076 304.3 1.6 301 8.6
2004-03-19 07:25:59 51°13.585 2°56.073 305.1 1.6 302 8.7
2004-03-19 07:26:05 51°13.587 2°56.07 305.5 1.5 301 8.7
2004-03-19 07:26:09 51°13.587 2°56.067 305.8 1.5 303 8.7
2004-03-19 07:26:14 51°13.588 2°56.064 306 1.5 303 8.7
2004-03-19 07:26:19 51°13.589 2°56.062 306 1.5 302 8.7
2004-03-19 07:26:23 51°13.59 2°56.059 306.1 1.5 301 8.7
2004-03-19 07:26:29 51°13.591 2°56.056 306.1 1.6 301 8.6
2004-03-19 07:26:34 51°13.593 2°56.053 306.1 1.7 300 8.7
2004-03-19 07:26:39 51°13.594 2°56.049 306.3 1.3 303 8.6
2004-03-19 07:26:45 51°13.595 2°56.046 306.8 1.6 303 8.6
2004-03-19 07:26:49 51°13.596 2°56.043 307.2 1.7 304 8.6
2004-03-19 07:26:54 51°13.598 2°56.04 307.6 1.6 304 8.6
2004-03-19 07:26:59 51°13.599 2°56.037 307.7 1.6 305 8.6
2004-03-19 07:27:03 51°13.6 2°56.035 307.8 1.6 303 8.7
2004-03-19 07:27:09 51°13.601 2°56.031 307.8 1.6 304 8.7
2004-03-19 07:27:14 51°13.602 2°56.028 307.9 1.6 304 8.7
2004-03-19 07:27:19 51°13.604 2°56.025 308 1.6 305 8.7
2004-03-19 07:27:23 51°13.605 2°56.023 308.1 1.6 303 8.7
2004-03-19 07:27:29 51°13.606 2°56.02 308.2 1.6 304 8.8
2004-03-19 07:27:34 51°13.607 2°56.017 308.4 1.6 303 8.8
2004-03-19 07:27:39 51°13.608 2°56.014 308.5 1.6 306 8.8
2004-03-19 07:27:45 51°13.61 2°56.01 308.6 1.7 303 8.9
2004-03-19 07:27:49 51°13.612 2°56.007 308.6 1.8 304 8.9
2004-03-19 07:27:54 51°13.614 2°56.004 308.6 1.9 304 8.7
2004-03-19 07:28:01 51°13.616 2°55.999 308.5 1.9 304 8.9
2004-03-19 07:28:05 51°13.617 2°55.995 308.4 1.3 305 9.6
2004-03-19 07:28:09 51°13.618 2°55.992 308.4 2.4 305 9.9
2004-03-19 07:28:14 51°13.62 2°55.987 308.4 2.5 305 10
2004-03-19 07:28:19 51°13.622 2°55.982 308.4 2.7 305 9.8
2004-03-19 07:28:23 51°13.624 2°55.978 308.4 2.9 305 9.8
2004-03-19 07:28:29 51°13.627 2°55.971 308.4 3.1 305 9.7
2004-03-19 07:28:33 51°13.629 2°55.967 308.4 3.1 305 9.8
2004-03-19 07:28:39 51°13.632 2°55.959 308.4 3.4 305 9.8
2004-03-19 07:28:43 51°13.634 2°55.954 308.1 3 304 9.6
2004-03-19 07:28:49 51°13.638 2°55.946 307.7 3.8 304 9.5
2004-03-19 07:28:54 51°13.641 2°55.939 307.7 3.9 304 9.5
2004-03-19 07:28:59 51°13.644 2°55.931 307.4 4 304 9.5
2004-03-19 07:29:04 51°13.647 2°55.924 307.4 4.1 304 9.6
2004-03-19 07:29:09 51°13.651 2°55.916 307.7 4.1 304 9.4
2004-03-19 07:29:13 51°13.653 2°55.91 308.2 4.3 305 9.4
2004-03-19 07:29:19 51°13.657 2°55.9 308.5 4.4 303 9.4
2004-03-19 07:29:23 51°13.66 2°55.893 308.7 4.6 304 9.4
2004-03-19 07:29:29 51°13.664 2°55.882 308.8 5 303 9.4
2004-03-19 07:29:34 51°13.668 2°55.873 308.8 5.2 303 9.2
2004-03-19 07:29:39 51°13.673 2°55.863 308.6 5.4 304 9.2
2004-03-19 07:29:44 51°13.678 2°55.853 308.4 5.6 304 9.3
2004-03-19 07:29:49 51°13.682 2°55.842 308.8 5.8 305 9.4
2004-03-19 07:29:54 51°13.687 2°55.832 309.6 5.8 305 9.8
2004-03-19 07:29:59 51°13.692 2°55.821 310.1 6.1 306 9.4
2004-03-19 07:30:05 51°13.699 2°55.807 310.4 6.2 306 10
2004-03-19 07:30:09 51°13.703 2°55.798 310.6 6.3 306 10.9
2004-03-19 07:30:14 51°13.709 2°55.787 310.9 6.5 307 11.2
2004-03-19 07:30:19 51°13.715 2°55.775 311.3 6.6 307 11.6
2004-03-19 07:30:25 51°13.722 2°55.761 312.2 6.8 309 11.3
2004-03-19 07:30:29 51°13.727 2°55.751 313.3 7.1 310 10.3
2004-03-19 07:30:34 51°13.733 2°55.739 315 7.2 311 9.1
2004-03-19 07:30:39 51°13.74 2°55.727 316.3 7.4 312 8.6
2004-03-19 07:30:45 51°13.749 2°55.713 317.5 7.5 315 8.8
2004-03-19 07:30:49 51°13.756 2°55.704 319.6 7.5 316 8.7
2004-03-19 07:30:54 51°13.764 2°55.694 322.2 7.7 320 8.7
2004-03-19 07:30:59 51°13.773 2°55.683 324.7 7.8 322 8.6
2004-03-19 07:31:05 51°13.784 2°55.671 327.3 7.9 324 8.7
2004-03-19 07:31:09 51°13.791 2°55.664 329.8 8 327 8.8
2004-03-19 07:31:14 51°13.8 2°55.654 332 8 327 9.2
2004-03-19 07:31:19 51°13.809 2°55.646 333.9 7.9 331 9.2
2004-03-19 07:31:25 51°13.821 2°55.636 336.2 7.9 333 9.3
2004-03-19 07:31:29 51°13.829 2°55.63 337.9 7.9 333 9.3
2004-03-19 07:31:34 51°13.839 2°55.622 338.5 7.9 333 9.3
2004-03-19 07:31:39 51°13.849 2°55.614 338.8 7.9 333 9.2
2004-03-19 07:31:43 51°13.857 2°55.608 339.3 7.9 334 9.1
2004-03-19 07:31:49 51°13.868 2°55.599 340.4 7.9 336 9.2
2004-03-19 07:31:54 51°13.878 2°55.592 341.2 7.9 336 8.9
2004-03-19 07:31:59 51°13.888 2°55.585 341.6 7.8 336 8.7
2004-03-19 07:32:03 51°13.896 2°55.579 341.5 7.8 335 8.7
2004-03-19 07:32:09 51°13.908 2°55.571 341.5 7.8 336 8.7
2004-03-19 07:32:14 51°13.918 2°55.564 342 7.8 337 8.6
2004-03-19 07:32:19 51°13.928 2°55.557 342.3 7.8 337 8.9
2004-03-19 07:32:25 51°13.94 2°55.549 341.5 7.8 336 9
2004-03-19 07:32:29 51°13.948 2°55.543 341.1 7.7 336 9.1
2004-03-19 07:32:33 51°13.956 2°55.538 341.1 7.8 337 9.3
2004-03-19 07:32:39 51°13.968 2°55.53 341.3 7.8 337 9.4
2004-03-19 07:32:43 51°13.976 2°55.524 341 7.8 336 9.4
2004-03-19 07:32:49 51°13.988 2°55.515 340.7 7.9 336 9.4
2004-03-19 07:32:54 51°13.998 2°55.508 340.6 8 336 9.6
2004-03-19 07:32:59 51°14.008 2°55.5 340.6 8.1 336 9.4
2004-03-19 07:33:03 51°14.017 2°55.494 340.5 8.1 336 9.6
2004-03-19 07:33:09 51°14.029 2°55.486 340.6 8.2 337 9.2
2004-03-19 07:33:13 51°14.038 2°55.48 340.8 8.3 336 10.4
2004-03-19 07:33:19 51°14.051 2°55.47 340.6 8.6 335 10
2004-03-19 07:33:25 51°14.064 2°55.46 341.3 8.9 336 -999
2004-03-19 07:33:30 51°14.076 2°55.451 341.5 9.4 335 -999
2004-03-19 07:33:35 51°14.088 2°55.442 340.4 9.6 334 -999
2004-03-19 07:33:39 51°14.098 2°55.435 340.8 9.8 336 -999
2004-03-19 07:33:43 51°14.108 2°55.427 340.9 9.9 335 -999
2004-03-19 07:33:49 51°14.124 2°55.416 340.4 10.2 335 10
2004-03-19 07:33:53 51°14.134 2°55.408 340.4 10.2 335 10.1
2004-03-19 07:33:59 51°14.15 2°55.396 340.4 10.4 335 10
2004-03-19 07:34:05 51°14.165 2°55.383 338.9 10.5 331 -999
2004-03-19 07:34:09 51°14.175 2°55.373 336.7 10.5 330 10.5
2004-03-19 07:34:15 51°14.189 2°55.358 334.6 10.5 328 10
2004-03-19 07:34:19 51°14.199 2°55.347 333.1 10.5 327 10
2004-03-19 07:34:25 51°14.213 2°55.331 331 10.6 325 -999
2004-03-19 07:34:29 51°14.222 2°55.319 329.2 10.6 321 9.9
2004-03-19 07:34:35 51°14.236 2°55.301 326.9 10.7 320 10.1
2004-03-19 07:34:39 51°14.245 2°55.288 325.5 10.7 319 10.8
2004-03-19 07:34:45 51°14.258 2°55.269 324.2 10.7 317 -999
2004-03-19 07:34:49 51°14.266 2°55.256 322.9 10.7 316 -999
2004-03-19 07:34:55 51°14.279 2°55.235 321.2 10.7 315 -999
2004-03-19 07:34:59 51°14.287 2°55.221 319.2 10.7 314 -999
2004-03-19 07:35:05 51°14.298 2°55.199 316.4 10.8 310 -999
2004-03-19 07:35:10 51°14.308 2°55.181 315.8 10.9 310 -999
2004-03-19 07:35:15 51°14.318 2°55.162 315.4 11 310 -999
2004-03-19 07:35:19 51°14.325 2°55.147 314.2 11.1 309 -999
2004-03-19 07:35:25 51°14.337 2°55.123 313.3 11.2 308 -999
2004-03-19 07:35:30 51°14.346 2°55.104 313 11.3 308 -999
2004-03-19 07:35:35 51°14.356 2°55.084 313 11.4 308 -999
2004-03-19 07:35:39 51°14.364 2°55.068 313.6 11.5 309 9.9
2004-03-19 07:35:45 51°14.376 2°55.043 314.3 11.6 308 10.1
2004-03-19 07:35:49 51°14.384 2°55.026 314 11.8 305 10.3
2004-03-19 07:35:54 51°14.392 2°55.004 311.3 11.9 301 10.2
2004-03-19 07:35:59 51°14.4 2°54.98 307.7 12 298 9.8
2004-03-19 07:36:05 51°14.407 2°54.95 303.4 12.1 295 10.1
2004-03-19 07:36:09 51°14.411 2°54.93 299 12.2 288 9.8
2004-03-19 07:36:14 51°14.416 2°54.903 295.1 12.3 285 9.9
2004-03-19 07:36:19 51°14.419 2°54.876 291.5 12.5 283 9.9
2004-03-19 07:36:25 51°14.423 2°54.843 288.1 12.6 280 9.8
2004-03-19 07:36:29 51°14.424 2°54.82 284.8 13 276 9.8
2004-03-19 07:36:34 51°14.425 2°54.791 282 13.1 275 9.8
2004-03-19 07:36:39 51°14.426 2°54.761 280.3 13.2 274 9.7
2004-03-19 07:36:43 51°14.427 2°54.737 279.2 13.4 273 9.7
2004-03-19 07:36:49 51°14.426 2°54.702 277.5 13.5 269 9.7
2004-03-19 07:36:53 51°14.426 2°54.677 275 13.6 268 9.7
2004-03-19 07:36:59 51°14.423 2°54.641 272.1 13.7 264 9.7
2004-03-19 07:37:03 51°14.42 2°54.617 268.4 13.7 261 9.7
2004-03-19 07:37:09 51°14.414 2°54.582 265.5 13.7 255 9.7
2004-03-19 07:37:14 51°14.409 2°54.553 260.8 13.8 253 9.7
2004-03-19 07:37:19 51°14.402 2°54.525 256.9 13.8 250 9.5
2004-03-19 07:37:23 51°14.396 2°54.502 253.9 13.8 249 9.3
2004-03-19 07:37:29 51°14.387 2°54.468 252.5 13.9 247 9
2004-03-19 07:37:34 51°14.379 2°54.44 251.8 13.9 247 8.8
2004-03-19 07:37:39 51°14.372 2°54.412 251.1 13.8 247 8.7
2004-03-19 07:37:44 51°14.363 2°54.384 250.4 13.8 245 8.6
2004-03-19 07:37:49 51°14.355 2°54.357 249.4 13.8 242 8.5
2004-03-19 07:37:54 51°14.345 2°54.331 246.7 13.8 240 8.5
2004-03-19 07:37:59 51°14.335 2°54.305 244.9 13.9 239 8.5
2004-03-19 07:38:05 51°14.322 2°54.274 242.2 13.9 237 8.4
2004-03-19 07:38:09 51°14.313 2°54.254 240.4 13.9 236 8.4
2004-03-19 07:38:14 51°14.302 2°54.229 239.5 13.9 235 8.3
2004-03-19 07:38:19 51°14.291 2°54.203 238.4 14 235 8.3
2004-03-19 07:38:25 51°14.277 2°54.173 238.2 14 235 8.2
2004-03-19 07:38:29 51°14.269 2°54.152 238.2 14 236 8.3
2004-03-19 07:38:34 51°14.258 2°54.127 239.1 14 236 8.3
2004-03-19 07:38:39 51°14.248 2°54.1 239.5 14 237 8.2
2004-03-19 07:38:43 51°14.239 2°54.079 241 14.1 238 8.2
2004-03-19 07:38:49 51°14.227 2°54.047 241.6 14.1 239 8.1
2004-03-19 07:38:53 51°14.219 2°54.026 242.4 14.1 239 8.1
2004-03-19 07:38:59 51°14.207 2°53.994 242.8 14.1 239 8.2
2004-03-19 07:39:03 51°14.199 2°53.973 242.6 14.1 239 8.1
2004-03-19 07:39:09 51°14.186 2°53.941 242.3 14.1 238 8.2
2004-03-19 07:39:14 51°14.176 2°53.915 241.7 14.1 238 8.1
2004-03-19 07:39:19 51°14.165 2°53.889 241 14.1 237 8.1
2004-03-19 07:39:25 51°14.152 2°53.857 240.5 14.1 237 8.2
2004-03-19 07:39:29 51°14.144 2°53.836 240.3 14.2 237 8.2
2004-03-19 07:39:34 51°14.133 2°53.81 240.7 14.2 237 8.1
2004-03-19 07:39:39 51°14.123 2°53.783 241.1 14.2 238 8.2
2004-03-19 07:39:45 51°14.11 2°53.751 241.8 14.2 238 8.2
2004-03-19 07:39:49 51°14.103 2°53.729 242.4 14.2 240 8.3
2004-03-19 07:39:54 51°14.093 2°53.702 243.6 14.2 240 8.2
2004-03-19 07:39:59 51°14.083 2°53.675 243.8 14.2 240 8.2
2004-03-19 07:40:05 51°14.071 2°53.642 243.9 14.2 240 8.2
2004-03-19 07:40:09 51°14.063 2°53.621 243.8 14.2 239 8.4
2004-03-19 07:40:14 51°14.052 2°53.594 243.1 14.2 239 8.4
2004-03-19 07:40:19 51°14.042 2°53.567 242.3 14.2 238 8.3
2004-03-19 07:40:25 51°14.029 2°53.535 241.9 14.3 238 8.4
2004-03-19 07:40:29 51°14.02 2°53.514 241 14.3 237 8.3
2004-03-19 07:40:33 51°14.012 2°53.492 240.7 14.3 238 8.4
2004-03-19 07:40:39 51°14 2°53.46 241.5 14.3 239 8.4
2004-03-19 07:40:43 51°13.992 2°53.438 242.7 14.3 240 8.4
2004-03-19 07:40:49 51°13.98 2°53.405 243.8 14.3 241 8.5
2004-03-19 07:40:54 51°13.971 2°53.376 245.3 14.3 242 8.5
2004-03-19 07:40:59 51°13.962 2°53.348 246.6 14.3 243 8.5
2004-03-19 07:41:05 51°13.952 2°53.314 247.7 14.3 244 8.5
2004-03-19 07:41:09 51°13.945 2°53.291 248.2 14.3 244 8.5
2004-03-19 07:41:13 51°13.938 2°53.268 248.5 14.3 244 8.6
2004-03-19 07:41:19 51°13.927 2°53.234 248.3 14.4 243 8.7
2004-03-19 07:41:23 51°13.92 2°53.212 247.6 14.4 243 8.6
2004-03-19 07:41:29 51°13.908 2°53.178 246.8 14.4 242 8.6
2004-03-19 07:41:34 51°13.899 2°53.15 246 14.4 242 8.7
2004-03-19 07:41:39 51°13.889 2°53.122 245.9 14.4 242 8.7
2004-03-19 07:41:45 51°13.878 2°53.088 245.6 14.5 241 8.7
2004-03-19 07:41:49 51°13.87 2°53.066 245.5 14.5 241 8.7
2004-03-19 07:41:54 51°13.86 2°53.038 245.5 14.4 241 8.8
2004-03-19 07:41:59 51°13.851 2°53.01 245.8 14.4 242 8.8
2004-03-19 07:42:05 51°13.84 2°52.976 246.1 14.4 242 8.8
2004-03-19 07:42:09 51°13.833 2°52.953 246.4 14.5 242 8.9
2004-03-19 07:42:13 51°13.825 2°52.931 246.6 14.5 242 8.9
2004-03-19 07:42:19 51°13.814 2°52.897 246.5 14.5 242 9
2004-03-19 07:42:23 51°13.806 2°52.875 246.7 14.5 243 9
2004-03-19 07:42:29 51°13.795 2°52.841 246.7 14.5 242 9.1
2004-03-19 07:42:33 51°13.788 2°52.818 246.5 14.5 242 9
2004-03-19 07:42:39 51°13.776 2°52.784 246.1 14.5 241 9.2
2004-03-19 07:42:45 51°13.764 2°52.751 245.8 14.5 241 9.1
2004-03-19 07:42:49 51°13.757 2°52.728 245.6 14.5 241 9.1
2004-03-19 07:42:54 51°13.747 2°52.7 245.5 14.5 241 9.1
2004-03-19 07:42:59 51°13.737 2°52.672 245.6 14.5 242 9.2
2004-03-19 07:43:05 51°13.726 2°52.638 245.8 14.5 241 9.2
2004-03-19 07:43:09 51°13.718 2°52.615 246 14.5 242 9.1
2004-03-19 07:43:14 51°13.708 2°52.587 246.1 14.5 242 9.3
2004-03-19 07:43:19 51°13.699 2°52.559 246.2 14.5 242 9.3
2004-03-19 07:43:25 51°13.688 2°52.525 246.5 14.5 242 9.3
2004-03-19 07:43:29 51°13.68 2°52.502 246.5 14.5 242 9.3
2004-03-19 07:43:34 51°13.671 2°52.474 246.5 14.5 242 9.2
2004-03-19 07:43:39 51°13.661 2°52.446 246.5 14.5 242 9.4
2004-03-19 07:43:45 51°13.65 2°52.412 246.5 14.5 242 9.4
2004-03-19 07:43:49 51°13.642 2°52.389 246.3 14.6 242 9.4
2004-03-19 07:43:54 51°13.633 2°52.361 246.2 14.6 242 9.5
2004-03-19 07:43:59 51°13.623 2°52.332 246.1 14.6 242 9.6
2004-03-19 07:44:03 51°13.615 2°52.309 246.2 14.6 242 9.6
2004-03-19 07:44:09 51°13.604 2°52.275 246.3 14.6 242 9.4
2004-03-19 07:44:13 51°13.596 2°52.253 246.4 14.6 242 9.5
2004-03-19 07:44:19 51°13.585 2°52.218 246.6 14.6 242 9.6
2004-03-19 07:44:24 51°13.575 2°52.19 246.6 14.6 242 9.6
2004-03-19 07:44:29 51°13.566 2°52.162 246.6 14.5 241 9.6
2004-03-19 07:44:33 51°13.558 2°52.139 246.2 14.6 242 9.6
2004-03-19 07:44:39 51°13.546 2°52.105 246 14.6 242 9.6
2004-03-19 07:44:44 51°13.537 2°52.077 246 14.6 242 9.6
2004-03-19 07:44:49 51°13.527 2°52.049 246.1 14.5 242 9.6
2004-03-19 07:44:53 51°13.519 2°52.026 246.2 14.6 242 9.6
2004-03-19 07:44:59 51°13.507 2°51.992 246.4 14.5 242 9.6
2004-03-19 07:45:05 51°13.496 2°51.958 246.5 14.5 242 9.6
2004-03-19 07:45:09 51°13.488 2°51.936 246.3 14.5 241 9.7
2004-03-19 07:45:14 51°13.479 2°51.907 245.9 14.5 242 9.6
2004-03-19 07:45:19 51°13.469 2°51.879 245.8 14.5 241 9.6
2004-03-19 07:45:25 51°13.457 2°51.846 245.7 14.5 241 9.6
2004-03-19 07:45:29 51°13.449 2°51.823 245.5 14.5 241 9.7
2004-03-19 07:45:34 51°13.44 2°51.795 245.6 14.5 241 9.6
2004-03-19 07:45:39 51°13.43 2°51.767 245.7 14.5 242 9.7
2004-03-19 07:45:45 51°13.419 2°51.733 245.9 14.5 241 9.7
2004-03-19 07:45:49 51°13.411 2°51.71 246 14.5 242 9.8
2004-03-19 07:45:54 51°13.401 2°51.682 246 14.5 241 9.7
2004-03-19 07:45:59 51°13.392 2°51.654 245.7 14.5 241 9.8
2004-03-19 07:46:03 51°13.384 2°51.632 245.7 14.5 241 9.7
2004-03-19 07:46:09 51°13.372 2°51.598 245.5 14.5 241 9.7
2004-03-19 07:46:14 51°13.363 2°51.57 245.4 14.5 241 9.7
2004-03-19 07:46:19 51°13.353 2°51.542 245.4 14.5 241 9.7
2004-03-19 07:46:25 51°13.341 2°51.508 245.6 14.5 241 9.7
2004-03-19 07:46:29 51°13.334 2°51.486 245.5 14.5 241 9.6
2004-03-19 07:46:34 51°13.324 2°51.458 245.6 14.5 241 9.7
2004-03-19 07:46:39 51°13.314 2°51.43 245.8 14.4 242 9.6
2004-03-19 07:46:43 51°13.307 2°51.407 245.9 14.5 242 9.7
2004-03-19 07:46:49 51°13.296 2°51.373 246.2 14.5 242 9.7
2004-03-19 07:46:53 51°13.288 2°51.35 246.6 14.4 242 9.8
2004-03-19 07:46:59 51°13.277 2°51.316 246.7 14.5 242 9.6
2004-03-19 07:47:04 51°13.267 2°51.288 246.2 14.5 242 9.8
2004-03-19 07:47:09 51°13.258 2°51.26 246.3 14.5 242 9.8
2004-03-19 07:47:13 51°13.25 2°51.237 246.3 14.5 242 9.8
2004-03-19 07:47:19 51°13.239 2°51.202 246.5 14.5 242 9.8
2004-03-19 07:47:23 51°13.232 2°51.179 246.5 14.5 242 9.9
2004-03-19 07:47:29 51°13.221 2°51.145 246.5 14.5 242 9.8
2004-03-19 07:47:34 51°13.211 2°51.117 246.3 14.5 242 9.8
2004-03-19 07:47:39 51°13.202 2°51.088 246.2 14.5 242 9.9
2004-03-19 07:47:43 51°13.194 2°51.065 246.4 14.5 242 9.9
2004-03-19 07:47:49 51°13.183 2°51.031 246.5 14.6 242 9.9
2004-03-19 07:47:54 51°13.173 2°51.003 246.4 14.6 242 9.9
2004-03-19 07:47:59 51°13.164 2°50.974 246.2 14.5 242 10
2004-03-19 07:48:05 51°13.152 2°50.94 246 14.5 242 9.9
2004-03-19 07:48:09 51°13.145 2°50.918 246 14.5 242 10
2004-03-19 07:48:14 51°13.135 2°50.889 246 14.6 242 10
2004-03-19 07:48:19 51°13.126 2°50.861 246.2 14.6 242 10
2004-03-19 07:48:25 51°13.115 2°50.827 246.4 14.5 242 10
2004-03-19 07:48:29 51°13.107 2°50.804 246.5 14.5 242 10
2004-03-19 07:48:34 51°13.098 2°50.776 246.3 14.5 242 10.1
2004-03-19 07:48:39 51°13.088 2°50.747 246.3 14.5 242 9.9
2004-03-19 07:48:43 51°13.081 2°50.724 246.2 14.5 242 10.1
2004-03-19 07:48:49 51°13.069 2°50.691 246.2 14.5 242 10
2004-03-19 07:48:54 51°13.06 2°50.662 246 14.5 242 10.1
2004-03-19 07:48:59 51°13.05 2°50.634 245.8 14.5 242 10.1
2004-03-19 07:49:05 51°13.039 2°50.6 245.8 14.5 242 10.1
2004-03-19 07:49:09 51°13.032 2°50.577 245.9 14.5 242 10.1
2004-03-19 07:49:13 51°13.024 2°50.554 246.2 14.5 242 10.1
2004-03-19 07:49:19 51°13.013 2°50.52 246.6 14.5 243 10.2
2004-03-19 07:49:25 51°13.002 2°50.486 246.8 14.5 243 10.2
2004-03-19 07:49:29 51°12.994 2°50.463 246.8 14.5 242 10.2
2004-03-19 07:49:35 51°12.983 2°50.429 246.4 14.5 242 10.1
2004-03-19 07:49:39 51°12.975 2°50.407 246.2 14.5 242 10.2
2004-03-19 07:49:45 51°12.964 2°50.373 245.8 14.5 242 10.2
2004-03-19 07:49:49 51°12.957 2°50.35 245.9 14.5 242 10.2
2004-03-19 07:49:54 51°12.948 2°50.321 246.2 14.5 242 10.2
2004-03-19 07:49:59 51°12.938 2°50.293 246.4 14.5 242 10.3
2004-03-19 07:50:05 51°12.927 2°50.259 246.2 14.5 242 10.2
2004-03-19 07:50:09 51°12.919 2°50.236 246.4 14.5 243 10.3
2004-03-19 07:50:13 51°12.912 2°50.213 246.7 14.5 243 10.4
2004-03-19 07:50:19 51°12.901 2°50.179 246.9 14.5 242 10.4
2004-03-19 07:50:25 51°12.89 2°50.145 246.9 14.5 243 10.4
2004-03-19 07:50:29 51°12.883 2°50.122 247.1 14.5 243 10.4
2004-03-19 07:50:34 51°12.873 2°50.094 246.7 14.5 242 10.4
2004-03-19 07:50:39 51°12.864 2°50.066 246.5 14.5 242 10.4
2004-03-19 07:50:43 51°12.856 2°50.044 246 14.4 242 10.4
2004-03-19 07:50:49 51°12.845 2°50.01 245.9 14.5 242 10.3
2004-03-19 07:50:53 51°12.837 2°49.987 246 14.5 243 10.4
2004-03-19 07:50:59 51°12.826 2°49.953 246.2 14.5 242 10.4
2004-03-19 07:51:04 51°12.816 2°49.925 246 14.5 242 10.5
2004-03-19 07:51:09 51°12.807 2°49.897 245.9 14.5 242 10.4
2004-03-19 07:51:13 51°12.799 2°49.874 245.8 14.5 242 10.5
2004-03-19 07:51:19 51°12.788 2°49.84 246.1 14.5 242 10.5
2004-03-19 07:51:23 51°12.78 2°49.818 246.1 14.6 243 10.5
2004-03-19 07:51:29 51°12.769 2°49.783 246.1 14.6 243 10.6
2004-03-19 07:51:34 51°12.76 2°49.755 246.4 14.5 243 10.6
2004-03-19 07:51:39 51°12.751 2°49.727 246.5 14.5 243 10.6
2004-03-19 07:51:43 51°12.743 2°49.704 246.5 14.5 242 10.5
2004-03-19 07:51:49 51°12.732 2°49.67 246.5 14.5 243 10.6
2004-03-19 07:51:54 51°12.723 2°49.642 246.5 14.5 243 10.6
2004-03-19 07:51:59 51°12.714 2°49.613 246.4 14.5 243 10.7
2004-03-19 07:52:05 51°12.703 2°49.579 246.5 14.5 242 10.7
2004-03-19 07:52:09 51°12.695 2°49.556 246.5 14.5 243 10.7
2004-03-19 07:52:14 51°12.686 2°49.528 246.6 14.5 243 10.7
2004-03-19 07:52:19 51°12.677 2°49.5 246.6 14.5 242 10.7
2004-03-19 07:52:25 51°12.666 2°49.466 246.5 14.5 243 10.7
2004-03-19 07:52:29 51°12.659 2°49.443 246.5 14.4 243 10.7
2004-03-19 07:52:34 51°12.65 2°49.414 246.7 14.4 243 10.8
2004-03-19 07:52:39 51°12.641 2°49.386 246.6 14.5 242 10.8
2004-03-19 07:52:43 51°12.633 2°49.364 246.3 14.5 243 10.7
2004-03-19 07:52:49 51°12.622 2°49.33 246.3 14.4 243 10.7
2004-03-19 07:52:54 51°12.613 2°49.302 246.4 14.4 243 10.8
2004-03-19 07:52:59 51°12.605 2°49.273 246.4 14.4 243 10.9
2004-03-19 07:53:05 51°12.594 2°49.239 246.6 14.4 243 10.9
2004-03-19 07:53:09 51°12.586 2°49.217 246.6 14.4 243 10.9
2004-03-19 07:53:13 51°12.579 2°49.194 246.4 14.4 243 10.9
2004-03-19 07:53:19 51°12.568 2°49.161 246.3 14.4 242 10.8
2004-03-19 07:53:25 51°12.557 2°49.127 246 14.4 242 10.8
2004-03-19 07:53:29 51°12.549 2°49.104 246 14.4 242 10.9
2004-03-19 07:53:35 51°12.537 2°49.07 245.9 14.4 242 10.9
2004-03-19 07:53:39 51°12.53 2°49.048 245.8 14.4 242 10.9
2004-03-19 07:53:45 51°12.519 2°49.015 245.7 14.4 242 11
2004-03-19 07:53:49 51°12.512 2°48.993 245.4 14.4 242 10.9
2004-03-19 07:53:55 51°12.501 2°48.96 245.5 14.4 242 10.9
2004-03-19 07:53:59 51°12.494 2°48.937 245.9 14.5 243 11
2004-03-19 07:54:05 51°12.483 2°48.903 246.1 14.4 242 10.9
2004-03-19 07:54:09 51°12.475 2°48.88 246.4 14.5 242 10.9
2004-03-19 07:54:14 51°12.466 2°48.852 246.5 14.5 242 10.9
2004-03-19 07:54:19 51°12.457 2°48.824 246.5 14.5 242 10.9
2004-03-19 07:54:25 51°12.445 2°48.79 246.2 14.4 242 10.9
2004-03-19 07:54:29 51°12.437 2°48.767 246.2 14.5 242 11
2004-03-19 07:54:34 51°12.427 2°48.738 245.9 14.5 242 11.1
2004-03-19 07:54:39 51°12.417 2°48.709 246 14.5 242 11
2004-03-19 07:54:43 51°12.41 2°48.686 246.2 14.5 243 11.1
2004-03-19 07:54:49 51°12.398 2°48.651 246.5 14.5 243 11.1
2004-03-19 07:54:55 51°12.387 2°48.617 246.5 14.5 243 11
2004-03-19 07:54:59 51°12.38 2°48.594 246.5 14.4 243 11.2
2004-03-19 07:55:05 51°12.368 2°48.56 246.5 14.4 242 11
2004-03-19 07:55:09 51°12.361 2°48.537 246.4 14.4 243 11.1
2004-03-19 07:55:13 51°12.353 2°48.514 246.6 14.4 243 11.1
2004-03-19 07:55:19 51°12.342 2°48.479 246.7 14.4 243 11.1
2004-03-19 07:55:25 51°12.331 2°48.445 246.9 14.4 243 11.2
2004-03-19 07:55:29 51°12.324 2°48.422 247 14.4 243 11.1
2004-03-19 07:55:34 51°12.315 2°48.394 246.6 14.4 242 11.2
2004-03-19 07:55:39 51°12.306 2°48.366 246.5 14.4 243 11.2
2004-03-19 07:55:43 51°12.298 2°48.343 246.4 14.4 242 11.2
2004-03-19 07:55:49 51°12.287 2°48.309 246.4 14.4 243 11.2
2004-03-19 07:55:53 51°12.279 2°48.287 246.5 14.4 242 11.2
2004-03-19 07:55:59 51°12.268 2°48.253 246.5 14.4 243 11.3
2004-03-19 07:56:05 51°12.257 2°48.219 246.5 14.4 242 11
2004-03-19 07:56:09 51°12.25 2°48.196 246.5 14.4 243 11.2
2004-03-19 07:56:13 51°12.243 2°48.174 246.4 14.3 243 11.3
2004-03-19 07:56:19 51°12.231 2°48.14 246.5 14.4 243 11.4
2004-03-19 07:56:23 51°12.224 2°48.117 246.5 14.4 243 11.3
2004-03-19 07:56:29 51°12.213 2°48.084 246.6 14.4 243 11.2
2004-03-19 07:56:34 51°12.204 2°48.055 246.6 14.3 243 11.4
2004-03-19 07:56:39 51°12.195 2°48.027 246.7 14.3 243 11.4
2004-03-19 07:56:45 51°12.184 2°47.994 246.6 14.3 243 11.4
2004-03-19 07:56:49 51°12.177 2°47.971 246.1 14.3 242 11.4
2004-03-19 07:56:54 51°12.167 2°47.943 246.1 14.3 242 11.4
2004-03-19 07:56:59 51°12.158 2°47.915 246.1 14.3 242 11.4
2004-03-19 07:57:05 51°12.147 2°47.882 246.1 14.3 242 11.4
2004-03-19 07:57:09 51°12.14 2°47.859 246.2 14.3 243 11.4
2004-03-19 07:57:14 51°12.131 2°47.831 246.3 14.3 243 11.4
2004-03-19 07:57:19 51°12.122 2°47.803 246.5 14.3 243 11.4
2004-03-19 07:57:25 51°12.111 2°47.769 246.7 14.3 243 11.3
2004-03-19 07:57:29 51°12.104 2°47.746 246.7 14.3 243 11.3
2004-03-19 07:57:34 51°12.094 2°47.718 246.4 14.3 242 11.4
2004-03-19 07:57:39 51°12.085 2°47.69 246.3 14.3 243 11.3
2004-03-19 07:57:45 51°12.075 2°47.657 246.1 14.3 243 11.4
2004-03-19 07:57:49 51°12.067 2°47.634 246.4 14.3 243 11.4
2004-03-19 07:57:54 51°12.058 2°47.606 246.5 14.3 243 11.4
2004-03-19 07:57:59 51°12.049 2°47.578 246.4 14.3 243 11.4
2004-03-19 07:58:03 51°12.042 2°47.556 246 14.3 242 11.4
2004-03-19 07:58:09 51°12.03 2°47.522 245.5 14.3 242 11.3
2004-03-19 07:58:14 51°12.021 2°47.494 245.5 14.3 242 11.4
2004-03-19 07:58:19 51°12.012 2°47.466 245.7 14.3 242 11.4
2004-03-19 07:58:25 51°12.001 2°47.432 246.2 14.3 243 11.5
2004-03-19 07:58:29 51°11.994 2°47.41 246.7 14.3 243 11.4
2004-03-19 07:58:34 51°11.984 2°47.381 246.7 14.3 242 11.4
2004-03-19 07:58:39 51°11.975 2°47.353 246.3 14.3 243 11.4
2004-03-19 07:58:43 51°11.968 2°47.331 246 14.3 242 11.4
2004-03-19 07:58:49 51°11.957 2°47.297 245.8 14.3 242 11.4
2004-03-19 07:58:54 51°11.948 2°47.269 246 14.4 242 11.4
2004-03-19 07:58:59 51°11.939 2°47.241 246 14.4 243 11.4
2004-03-19 07:59:03 51°11.932 2°47.219 246.1 14.3 243 11.3
2004-03-19 07:59:09 51°11.921 2°47.184 246.8 14.3 245 11.4
2004-03-19 07:59:14 51°11.913 2°47.156 248.2 14.3 245 11.4
2004-03-19 07:59:19 51°11.905 2°47.127 249 14.4 246 11.5
2004-03-19 07:59:23 51°11.899 2°47.104 249.8 14.4 246 11.3
2004-03-19 07:59:29 51°11.889 2°47.069 250.1 14.4 247 11.3
2004-03-19 07:59:34 51°11.881 2°47.04 250.4 14.3 247 11.4
2004-03-19 07:59:39 51°11.874 2°47.011 250.6 14.3 247 11.4
2004-03-19 07:59:45 51°11.864 2°46.976 250.7 14.3 247 11.5
2004-03-19 07:59:49 51°11.858 2°46.953 250.9 14.3 247 11.4
2004-03-19 07:59:54 51°11.85 2°46.923 251.1 14.3 247 11.6
2004-03-19 07:59:59 51°11.843 2°46.894 251 14.3 247 11.6
2004-03-19 08:00:03 51°11.836 2°46.871 250.8 14.3 247 11.6
2004-03-19 08:00:09 51°11.827 2°46.836 250.5 14.3 247 11.5
2004-03-19 08:00:14 51°11.819 2°46.808 250.4 14.3 246 11.5
2004-03-19 08:00:19 51°11.811 2°46.779 250 14.3 246 11.6
2004-03-19 08:00:23 51°11.805 2°46.755 250 14.4 246 11.6
2004-03-19 08:00:29 51°11.796 2°46.721 250.3 14.3 247 11.6
2004-03-19 08:00:34 51°11.788 2°46.692 250.6 14.3 247 11.6
2004-03-19 08:00:39 51°11.78 2°46.662 250.8 14.3 247 11.7
2004-03-19 08:00:45 51°11.771 2°46.627 251.1 14.3 247 11.6
2004-03-19 08:00:49 51°11.764 2°46.604 250.5 14.3 247 11.7
2004-03-19 08:00:54 51°11.757 2°46.575 250.6 14.3 247 11.7
2004-03-19 08:00:59 51°11.749 2°46.546 250.7 14.4 247 11.8
2004-03-19 08:01:03 51°11.743 2°46.522 250.8 14.4 247 11.7
2004-03-19 08:01:09 51°11.733 2°46.487 251 14.4 247 11.8
2004-03-19 08:01:14 51°11.726 2°46.458 250.9 14.4 247 11.8
2004-03-19 08:01:19 51°11.718 2°46.429 250.6 14.4 247 11.8
2004-03-19 08:01:25 51°11.708 2°46.395 250.4 14.3 247 11.8
2004-03-19 08:01:29 51°11.702 2°46.371 250.2 14.3 247 11.8
2004-03-19 08:01:34 51°11.694 2°46.342 250 14.3 247 11.8
2004-03-19 08:01:39 51°11.687 2°46.314 250.4 14.3 247 11.8
2004-03-19 08:01:43 51°11.68 2°46.291 250.4 14.3 247 11.9
2004-03-19 08:01:49 51°11.671 2°46.256 250.7 14.3 247 11.8
2004-03-19 08:01:54 51°11.664 2°46.227 250.9 14.3 247 11.8
2004-03-19 08:01:59 51°11.656 2°46.197 251.1 14.3 247 11.9
2004-03-19 08:02:05 51°11.646 2°46.163 251 14.4 247 11.8
2004-03-19 08:02:09 51°11.64 2°46.139 250.6 14.3 247 11.8
2004-03-19 08:02:14 51°11.632 2°46.11 250.4 14.4 247 11.9
2004-03-19 08:02:19 51°11.625 2°46.081 250.4 14.4 247 11.8
2004-03-19 08:02:24 51°11.617 2°46.052 250.6 14.3 247 11.7
2004-03-19 08:02:29 51°11.609 2°46.022 250.6 14.4 248 11.8
2004-03-19 08:02:34 51°11.601 2°45.993 250.8 14.3 247 11.7
2004-03-19 08:02:39 51°11.593 2°45.964 250.7 14.4 247 11.7
2004-03-19 08:02:43 51°11.587 2°45.941 250.4 14.4 247 11.7
2004-03-19 08:02:49 51°11.577 2°45.906 250.2 14.4 246 11.7
2004-03-19 08:02:54 51°11.569 2°45.877 249.9 14.4 246 11.8
2004-03-19 08:02:59 51°11.562 2°45.848 249.7 14.4 246 11.8
2004-03-19 08:03:03 51°11.555 2°45.825 250 14.4 247 11.6
2004-03-19 08:03:09 51°11.546 2°45.789 250.2 14.4 247 11.7
2004-03-19 08:03:14 51°11.538 2°45.76 250.4 14.3 247 11.7
2004-03-19 08:03:19 51°11.53 2°45.731 250.4 14.3 247 11.7
2004-03-19 08:03:23 51°11.524 2°45.708 250.6 14.3 247 11.7
2004-03-19 08:03:29 51°11.515 2°45.672 250.7 14.3 247 11.6
2004-03-19 08:03:34 51°11.507 2°45.643 250.7 14.3 247 11.7
2004-03-19 08:03:39 51°11.499 2°45.614 250.7 14.3 247 11.7
2004-03-19 08:03:45 51°11.49 2°45.579 250.7 14.3 247 11.7
2004-03-19 08:03:49 51°11.484 2°45.556 250.5 14.3 247 11.6
2004-03-19 08:03:54 51°11.476 2°45.527 250.4 14.3 247 11.6
2004-03-19 08:03:59 51°11.468 2°45.498 250.3 14.3 247 11.7
2004-03-19 08:04:03 51°11.462 2°45.475 250.1 14.3 246 11.6
2004-03-19 08:04:09 51°11.452 2°45.44 249.7 14.4 246 11.6
2004-03-19 08:04:14 51°11.444 2°45.411 249.5 14.4 246 11.5
2004-03-19 08:04:19 51°11.436 2°45.382 249.8 14.3 247 11.6
2004-03-19 08:04:23 51°11.43 2°45.359 249.9 14.3 247 11.6
2004-03-19 08:04:29 51°11.421 2°45.324 250.3 14.3 247 11.6
2004-03-19 08:04:34 51°11.413 2°45.294 250.3 14.4 247 11.6
2004-03-19 08:04:39 51°11.405 2°45.265 250.4 14.3 247 11.6
2004-03-19 08:04:45 51°11.395 2°45.23 250.4 14.3 247 11.6
2004-03-19 08:04:49 51°11.389 2°45.207 250.4 14.4 247 11.6
2004-03-19 08:04:54 51°11.381 2°45.178 250.4 14.4 247 11.5
2004-03-19 08:04:59 51°11.374 2°45.149 250.5 14.3 247 11.6
2004-03-19 08:05:03 51°11.367 2°45.125 250.5 14.4 247 11.6
2004-03-19 08:05:09 51°11.358 2°45.09 250.5 14.4 247 11.6
2004-03-19 08:05:14 51°11.35 2°45.061 250.5 14.4 247 11.5
2004-03-19 08:05:19 51°11.343 2°45.032 250.5 14.4 247 11.5
2004-03-19 08:05:25 51°11.333 2°44.997 250.5 14.4 247 11.5
2004-03-19 08:05:29 51°11.327 2°44.974 250.5 14.4 247 11.6
2004-03-19 08:05:34 51°11.319 2°44.945 250.5 14.3 247 11.5
2004-03-19 08:05:39 51°11.312 2°44.915 250.6 14.3 247 11.5
2004-03-19 08:05:43 51°11.305 2°44.892 250.6 14.4 247 11.5
2004-03-19 08:05:49 51°11.296 2°44.857 250.8 14.3 247 11.5
2004-03-19 08:05:53 51°11.29 2°44.834 250.4 14.3 247 11.5
2004-03-19 08:05:59 51°11.28 2°44.799 250.1 14.3 247 11.5
2004-03-19 08:06:03 51°11.274 2°44.776 250 14.3 247 11.5
2004-03-19 08:06:09 51°11.265 2°44.741 250.3 14.3 247 11.5
2004-03-19 08:06:14 51°11.257 2°44.712 250.4 14.3 247 11.5
2004-03-19 08:06:19 51°11.25 2°44.683 250.6 14.3 247 11.4
2004-03-19 08:06:25 51°11.24 2°44.648 250.4 14.3 247 11.5
2004-03-19 08:06:29 51°11.234 2°44.625 250.4 14.3 247 11.4
2004-03-19 08:06:34 51°11.226 2°44.596 250.1 14.3 246 11.4
2004-03-19 08:06:39 51°11.218 2°44.567 249.8 14.3 246 11.5
2004-03-19 08:06:43 51°11.212 2°44.544 249.8 14.3 246 11.4
2004-03-19 08:06:49 51°11.202 2°44.509 249.8 14.3 246 11.4
2004-03-19 08:06:54 51°11.194 2°44.48 249.8 14.3 246 11.4
2004-03-19 08:06:59 51°11.187 2°44.451 249.8 14.3 247 11.4
2004-03-19 08:07:03 51°11.18 2°44.428 250.2 14.3 247 11.3
2004-03-19 08:07:09 51°11.171 2°44.393 250.4 14.3 247 11.3
2004-03-19 08:07:14 51°11.163 2°44.364 250.6 14.3 247 11.3
2004-03-19 08:07:19 51°11.156 2°44.334 250.8 14.3 247 11.3
2004-03-19 08:07:24 51°11.148 2°44.305 250.6 14.3 247 11.3
2004-03-19 08:07:29 51°11.141 2°44.276 250.5 14.3 247 11.3
2004-03-19 08:07:35 51°11.131 2°44.241 250.4 14.3 247 11.3
2004-03-19 08:07:39 51°11.125 2°44.218 250.2 14.3 247 11.4
2004-03-19 08:07:45 51°11.116 2°44.183 250.3 14.3 247 11.3
2004-03-19 08:07:49 51°11.11 2°44.16 250.2 14.3 247 11.4
2004-03-19 08:07:54 51°11.102 2°44.131 250.2 14.3 247 11.4
2004-03-19 08:07:59 51°11.094 2°44.102 250.2 14.3 247 11.3
2004-03-19 08:08:03 51°11.088 2°44.079 250.4 14.3 247 11.3
2004-03-19 08:08:09 51°11.079 2°44.044 250.4 14.2 247 11.3
2004-03-19 08:08:14 51°11.071 2°44.015 250.5 14.2 247 11.3
2004-03-19 08:08:19 51°11.063 2°43.986 250.3 14.2 247 11.3
2004-03-19 08:08:24 51°11.055 2°43.957 250.1 14.2 247 11.3
2004-03-19 08:08:29 51°11.048 2°43.929 250.1 14.2 247 11.3
2004-03-19 08:08:34 51°11.04 2°43.9 250.2 14.2 247 11.3
2004-03-19 08:08:39 51°11.032 2°43.871 250.2 14.3 247 11.3
2004-03-19 08:08:44 51°11.025 2°43.842 250.4 14.2 247 11.3
2004-03-19 08:08:49 51°11.017 2°43.813 250.5 14.3 247 11.3
2004-03-19 08:08:54 51°11.01 2°43.784 250.5 14.3 247 11.2
2004-03-19 08:08:59 51°11.002 2°43.755 250.4 14.3 247 11.2
2004-03-19 08:09:03 51°10.995 2°43.731 250.1 14.2 247 11.3
2004-03-19 08:09:09 51°10.986 2°43.697 250.4 14.2 247 11.2
2004-03-19 08:09:14 51°10.979 2°43.668 250.3 14.2 247 11.1
2004-03-19 08:09:19 51°10.971 2°43.639 250.4 14.2 247 11.2
2004-03-19 08:09:23 51°10.965 2°43.616 250.5 14.2 247 11.1
2004-03-19 08:09:29 51°10.955 2°43.581 250.4 14.2 247 11.1
2004-03-19 08:09:34 51°10.947 2°43.552 250.2 14.2 247 11.2
2004-03-19 08:09:39 51°10.94 2°43.523 250.1 14.2 247 11.1
2004-03-19 08:09:43 51°10.934 2°43.5 250.1 14.2 247 11.2
2004-03-19 08:09:49 51°10.924 2°43.465 250.2 14.3 247 11.2
2004-03-19 08:09:54 51°10.917 2°43.436 250.3 14.3 247 11.2
2004-03-19 08:09:59 51°10.909 2°43.407 250.5 14.3 248 11.2
2004-03-19 08:10:03 51°10.903 2°43.384 250.8 14.2 248 11.2
2004-03-19 08:10:09 51°10.894 2°43.349 250.9 14.2 247 11.1
2004-03-19 08:10:14 51°10.886 2°43.32 250.7 14.3 247 11.2
2004-03-19 08:10:19 51°10.878 2°43.291 250.7 14.2 247 11.1
2004-03-19 08:10:25 51°10.869 2°43.257 250.4 14.3 247 11.1
2004-03-19 08:10:29 51°10.863 2°43.233 250.1 14.2 246 11
2004-03-19 08:10:34 51°10.855 2°43.205 249.7 14.2 246 11.1
2004-03-19 08:10:39 51°10.847 2°43.176 249.7 14.2 247 11.1
2004-03-19 08:10:43 51°10.841 2°43.152 250.2 14.2 247 11.2
2004-03-19 08:10:49 51°10.832 2°43.118 250.9 14.2 247 11.1
2004-03-19 08:10:54 51°10.824 2°43.089 251 14.2 248 11.1
2004-03-19 08:10:59 51°10.817 2°43.06 251 14.2 247 11
2004-03-19 08:11:04 51°10.809 2°43.031 250.3 14.2 247 11.1
2004-03-19 08:11:09 51°10.801 2°43.002 250.2 14.2 246 11.1
2004-03-19 08:11:14 51°10.793 2°42.973 250 14.2 247 11.1
2004-03-19 08:11:19 51°10.786 2°42.944 250.2 14.2 247 11.1
2004-03-19 08:11:23 51°10.779 2°42.921 250.3 14.2 247 11.1
2004-03-19 08:11:29 51°10.77 2°42.887 250.5 14.2 247 11
2004-03-19 08:11:34 51°10.762 2°42.858 250.5 14.2 247 11.1
2004-03-19 08:11:39 51°10.754 2°42.829 250.4 14.2 247 11.1
2004-03-19 08:11:45 51°10.745 2°42.794 250.2 14.2 247 10.9
2004-03-19 08:11:49 51°10.739 2°42.771 250.1 14.2 247 11
2004-03-19 08:11:54 51°10.731 2°42.742 250.1 14.2 247 11
2004-03-19 08:11:59 51°10.723 2°42.713 250.4 14.2 247 11
2004-03-19 08:12:05 51°10.715 2°42.679 250.7 14.2 247 11
2004-03-19 08:12:09 51°10.708 2°42.656 250.8 14.2 247 10.9
2004-03-19 08:12:14 51°10.701 2°42.627 250.7 14.2 247 11
2004-03-19 08:12:19 51°10.693 2°42.598 250.7 14.2 247 11
2004-03-19 08:12:25 51°10.684 2°42.563 250.4 14.2 247 11
2004-03-19 08:12:29 51°10.678 2°42.54 250.4 14.2 247 10.9
2004-03-19 08:12:34 51°10.67 2°42.511 250.1 14.2 247 10.9
2004-03-19 08:12:39 51°10.662 2°42.483 250.1 14.2 247 10.9
2004-03-19 08:12:43 51°10.656 2°42.459 250.3 14.1 247 11
2004-03-19 08:12:49 51°10.647 2°42.425 250.2 14.1 247 10.9
2004-03-19 08:12:54 51°10.639 2°42.396 250.2 14.1 247 11
2004-03-19 08:12:59 51°10.632 2°42.368 250.4 14.1 247 10.9
2004-03-19 08:13:04 51°10.624 2°42.339 250.5 14.2 247 10.9
2004-03-19 08:13:09 51°10.617 2°42.31 250.6 14.1 247 10.9
2004-03-19 08:13:14 51°10.609 2°42.281 250.7 14.1 247 11
2004-03-19 08:13:19 51°10.601 2°42.253 250.4 14.1 247 10.8
2004-03-19 08:13:24 51°10.594 2°42.224 249.9 14.1 247 10.9
2004-03-19 08:13:29 51°10.586 2°42.195 250 14.1 248 10.9
2004-03-19 08:13:35 51°10.578 2°42.161 250.5 14.1 248 11
2004-03-19 08:13:39 51°10.572 2°42.138 251.3 14 249 10.9
2004-03-19 08:13:45 51°10.564 2°42.103 251.8 14 249 11
2004-03-19 08:13:49 51°10.558 2°42.08 252.2 14 249 10.9
2004-03-19 08:13:54 51°10.551 2°42.051 252.4 14 249 10.9
2004-03-19 08:13:59 51°10.544 2°42.022 252.7 14 249 10.8
2004-03-19 08:14:05 51°10.536 2°41.987 252.7 14 249 10.9
2004-03-19 08:14:09 51°10.531 2°41.964 252.7 14 249 10.9
2004-03-19 08:14:14 51°10.524 2°41.935 252.6 14.1 249 11
2004-03-19 08:14:19 51°10.517 2°41.906 252.5 14.1 249 10.9
2004-03-19 08:14:23 51°10.511 2°41.883 252.2 14.1 249 10.9
2004-03-19 08:14:29 51°10.503 2°41.848 252.4 14.1 249 10.9
2004-03-19 08:14:34 51°10.495 2°41.819 252.3 14.1 249 10.9
2004-03-19 08:14:39 51°10.488 2°41.79 252.2 14.1 249 11
2004-03-19 08:14:45 51°10.48 2°41.755 252.3 14.1 249 11
2004-03-19 08:14:49 51°10.475 2°41.732 252.6 14.1 250 10.9
2004-03-19 08:14:54 51°10.468 2°41.703 252.7 14.1 249 10.9
2004-03-19 08:14:59 51°10.461 2°41.673 252.7 14.1 249 11
2004-03-19 08:15:05 51°10.452 2°41.639 252.5 14.1 249 10.9
2004-03-19 08:15:09 51°10.447 2°41.616 252.4 14 249 10.9
2004-03-19 08:15:14 51°10.44 2°41.587 252 14 249 11
2004-03-19 08:15:19 51°10.433 2°41.558 251.9 14 249 11
2004-03-19 08:15:25 51°10.424 2°41.523 251.8 14 249 10.9
2004-03-19 08:15:29 51°10.419 2°41.5 252.2 14.1 249 11
2004-03-19 08:15:34 51°10.412 2°41.471 252.5 14.1 249 11
2004-03-19 08:15:39 51°10.405 2°41.442 252.6 14.1 250 11
2004-03-19 08:15:43 51°10.4 2°41.419 252.7 14 249 10.9
2004-03-19 08:15:49 51°10.391 2°41.384 252.5 14 249 11
2004-03-19 08:15:54 51°10.384 2°41.355 252.2 14.1 249 11
2004-03-19 08:15:59 51°10.377 2°41.326 252.1 14 249 11.1
2004-03-19 08:16:04 51°10.37 2°41.297 252.1 14 249 11
2004-03-19 08:16:09 51°10.363 2°41.268 252 14 249 10.9
2004-03-19 08:16:14 51°10.356 2°41.24 252 14 249 11
2004-03-19 08:16:19 51°10.349 2°41.211 251.9 14 249 11.1
2004-03-19 08:16:25 51°10.341 2°41.176 252.2 14 249 11
2004-03-19 08:16:29 51°10.335 2°41.153 252.2 13.9 249 11
2004-03-19 08:16:33 51°10.33 2°41.13 252.2 13.9 249 11
2004-03-19 08:16:39 51°10.322 2°41.096 252.3 13.9 249 10.9
2004-03-19 08:16:43 51°10.316 2°41.073 252.3 13.9 249 11
2004-03-19 08:16:49 51°10.308 2°41.038 252.3 13.9 249 11.1
2004-03-19 08:16:54 51°10.301 2°41.01 252.3 13.9 249 11
2004-03-19 08:16:59 51°10.294 2°40.981 252.2 13.9 249 11
2004-03-19 08:17:04 51°10.287 2°40.952 252.2 14 249 10.9
2004-03-19 08:17:09 51°10.28 2°40.923 252.5 13.9 249 11
2004-03-19 08:17:14 51°10.274 2°40.895 252.5 14 249 11
2004-03-19 08:17:19 51°10.267 2°40.866 252.6 14 250 11
2004-03-19 08:17:25 51°10.259 2°40.831 252.6 14 249 11.1
2004-03-19 08:17:29 51°10.253 2°40.808 252.5 13.9 249 11
2004-03-19 08:17:34 51°10.246 2°40.779 252 14 249 11
2004-03-19 08:17:39 51°10.239 2°40.751 251.9 14 249 11.1
2004-03-19 08:17:45 51°10.231 2°40.716 251.9 14 249 11.1
2004-03-19 08:17:49 51°10.225 2°40.693 252.1 13.9 249 11.1
2004-03-19 08:17:54 51°10.219 2°40.664 252.3 13.9 250 11
2004-03-19 08:17:59 51°10.212 2°40.635 252.6 13.9 250 11.1
2004-03-19 08:18:03 51°10.207 2°40.612 252.7 13.9 250 11
2004-03-19 08:18:09 51°10.199 2°40.578 253 13.9 249 11.1
2004-03-19 08:18:14 51°10.192 2°40.549 252.6 13.9 250 11.1
2004-03-19 08:18:19 51°10.185 2°40.52 252.6 13.9 249 11.1
2004-03-19 08:18:25 51°10.177 2°40.486 252.7 13.9 249 11.1
2004-03-19 08:18:29 51°10.172 2°40.463 252.8 13.9 249 11.1
2004-03-19 08:18:34 51°10.165 2°40.434 252.5 13.9 249 11
2004-03-19 08:18:39 51°10.158 2°40.405 252.2 13.9 249 11.1
2004-03-19 08:18:43 51°10.152 2°40.382 252.1 14 249 11.2
2004-03-19 08:18:49 51°10.144 2°40.348 252.3 13.9 249 11.1
2004-03-19 08:18:54 51°10.137 2°40.319 252.4 13.9 250 11.1
2004-03-19 08:18:59 51°10.131 2°40.29 252.5 13.9 250 11.1
2004-03-19 08:19:03 51°10.125 2°40.267 252.5 13.9 249 11.1
2004-03-19 08:19:09 51°10.117 2°40.233 252.2 13.9 249 11.2
2004-03-19 08:19:14 51°10.11 2°40.204 251.9 13.9 249 11.1
2004-03-19 08:19:19 51°10.103 2°40.176 251.9 13.9 249 11.2
2004-03-19 08:19:23 51°10.098 2°40.153 251.9 13.9 249 11.2
2004-03-19 08:19:29 51°10.089 2°40.118 252 13.9 249 11.2
2004-03-19 08:19:34 51°10.082 2°40.09 252.3 13.9 249 11.2
2004-03-19 08:19:39 51°10.076 2°40.061 252.3 13.9 249 11.1
2004-03-19 08:19:43 51°10.07 2°40.038 252.3 13.9 249 11.2
2004-03-19 08:19:49 51°10.062 2°40.003 252.2 13.9 249 11.1
2004-03-19 08:19:54 51°10.055 2°39.975 252.2 13.9 249 11.2
2004-03-19 08:19:59 51°10.048 2°39.946 252.1 13.9 249 11.2
2004-03-19 08:20:03 51°10.042 2°39.923 252 13.9 249 11.2
2004-03-19 08:20:09 51°10.034 2°39.889 251.9 13.9 249 11.1
2004-03-19 08:20:14 51°10.027 2°39.86 251.6 13.9 249 11.2
2004-03-19 08:20:19 51°10.02 2°39.831 251.6 13.9 248 11.1
2004-03-19 08:20:23 51°10.014 2°39.809 251.7 13.9 249 11.2
2004-03-19 08:20:29 51°10.006 2°39.774 251.8 13.9 249 11.1
2004-03-19 08:20:34 51°9.999 2°39.746 251.8 13.9 249 11.1
2004-03-19 08:20:39 51°9.993 2°39.717 252.3 13.9 249 11.2
2004-03-19 08:20:45 51°9.985 2°39.682 252.2 13.9 250 11.2
2004-03-19 08:20:49 51°9.979 2°39.659 252.5 13.9 250 11.2
2004-03-19 08:20:54 51°9.973 2°39.63 252.6 13.9 250 11.2
2004-03-19 08:20:59 51°9.966 2°39.602 252.9 13.9 250 11.2
2004-03-19 08:21:05 51°9.958 2°39.567 252.5 13.9 249 11.3
2004-03-19 08:21:09 51°9.952 2°39.544 252.3 13.9 249 11.2
2004-03-19 08:21:14 51°9.945 2°39.516 252.1 13.9 249 11.2
2004-03-19 08:21:19 51°9.939 2°39.487 251.9 13.9 249 11.3
2004-03-19 08:21:23 51°9.933 2°39.464 251.8 13.9 249 11.2
2004-03-19 08:21:29 51°9.925 2°39.43 251.8 13.9 249 11.3
2004-03-19 08:21:34 51°9.918 2°39.401 251.9 13.9 249 11.3
2004-03-19 08:21:39 51°9.911 2°39.372 252.5 13.9 250 11.4
2004-03-19 08:21:43 51°9.906 2°39.349 252.5 13.9 249 11.3
2004-03-19 08:21:49 51°9.898 2°39.315 252.2 13.9 249 11.4
2004-03-19 08:21:54 51°9.891 2°39.286 252.1 13.9 249 11.5
2004-03-19 08:21:59 51°9.884 2°39.258 252.1 13.9 249 11.5
2004-03-19 08:22:04 51°9.877 2°39.229 252 13.9 249 11.5
2004-03-19 08:22:09 51°9.871 2°39.201 252 13.9 249 11.5
2004-03-19 08:22:14 51°9.864 2°39.172 252 13.9 249 11.5
2004-03-19 08:22:19 51°9.857 2°39.143 251.9 13.9 249 11.5
2004-03-19 08:22:23 51°9.851 2°39.12 251.9 13.9 249 11.6
2004-03-19 08:22:29 51°9.843 2°39.086 252.1 13.8 249 11.6
2004-03-19 08:22:35 51°9.835 2°39.052 252.1 13.9 249 11.5
2004-03-19 08:22:39 51°9.83 2°39.029 252.1 13.9 249 11.6
2004-03-19 08:22:43 51°9.824 2°39.006 252.2 13.9 250 11.6
2004-03-19 08:22:49 51°9.816 2°38.972 252.5 13.9 250 11.7
2004-03-19 08:22:54 51°9.81 2°38.943 252.5 13.8 250 11.6
2004-03-19 08:22:59 51°9.803 2°38.914 252.6 13.9 250 11.7
2004-03-19 08:23:03 51°9.797 2°38.892 252.2 13.8 249 11.7
2004-03-19 08:23:09 51°9.789 2°38.857 252.3 13.8 249 11.6
2004-03-19 08:23:14 51°9.783 2°38.829 252.3 13.8 250 11.7
2004-03-19 08:23:19 51°9.776 2°38.8 252.4 13.8 250 11.7
2004-03-19 08:23:24 51°9.769 2°38.771 252.5 13.8 250 11.8
2004-03-19 08:23:29 51°9.763 2°38.743 252.6 13.8 249 11.8
2004-03-19 08:23:34 51°9.756 2°38.714 252.5 13.8 249 11.8
2004-03-19 08:23:39 51°9.749 2°38.686 252.3 13.8 249 11.8
2004-03-19 08:23:44 51°9.742 2°38.657 251.9 13.8 249 11.8
2004-03-19 08:23:49 51°9.735 2°38.629 251.9 13.8 249 11.9
2004-03-19 08:23:53 51°9.73 2°38.606 251.8 13.8 249 11.9
2004-03-19 08:23:59 51°9.722 2°38.571 251.9 13.9 249 11.9
2004-03-19 08:24:03 51°9.716 2°38.549 252.2 13.9 249 11.9
2004-03-19 08:24:09 51°9.708 2°38.514 252.4 13.9 250 11.9
2004-03-19 08:24:13 51°9.703 2°38.491 252.5 13.9 250 12
2004-03-19 08:24:19 51°9.695 2°38.457 252.8 13.9 250 12
2004-03-19 08:24:24 51°9.688 2°38.428 252.9 13.9 250 12
2004-03-19 08:24:29 51°9.682 2°38.399 253.1 13.9 250 12.1
2004-03-19 08:24:34 51°9.675 2°38.37 253.1 13.9 250 12.1
2004-03-19 08:24:39 51°9.668 2°38.342 252.7 13.9 249 12.1
2004-03-19 08:24:44 51°9.662 2°38.313 252.5 13.9 249 12.1
2004-03-19 08:24:49 51°9.655 2°38.285 252.5 13.9 249 12.2
2004-03-19 08:24:54 51°9.648 2°38.256 252.3 13.9 249 12.2
2004-03-19 08:24:59 51°9.641 2°38.227 252.3 13.9 249 12.3
2004-03-19 08:25:05 51°9.633 2°38.193 252.4 13.9 249 12.2
2004-03-19 08:25:09 51°9.628 2°38.17 252.3 13.9 250 12.2
2004-03-19 08:25:14 51°9.621 2°38.141 252.5 13.9 250 12.3
2004-03-19 08:25:19 51°9.614 2°38.113 252.6 13.8 250 12.4
2004-03-19 08:25:24 51°9.608 2°38.084 252.5 13.9 249 12.4
2004-03-19 08:25:29 51°9.601 2°38.055 252.4 13.8 249 12.3
2004-03-19 08:25:34 51°9.594 2°38.027 252.3 13.8 250 12.4
2004-03-19 08:25:39 51°9.588 2°37.998 252.5 13.8 250 12.5
2004-03-19 08:25:43 51°9.582 2°37.975 252.5 13.9 250 12.5
2004-03-19 08:25:49 51°9.574 2°37.941 252.6 13.8 250 12.4
2004-03-19 08:25:54 51°9.567 2°37.913 252.5 13.8 249 12.4
2004-03-19 08:25:59 51°9.561 2°37.884 252 13.8 249 12.5
2004-03-19 08:26:05 51°9.552 2°37.85 252 13.9 249 12.6
2004-03-19 08:26:09 51°9.547 2°37.827 252 13.8 249 12.5
2004-03-19 08:26:14 51°9.54 2°37.798 252.2 13.8 250 12.6
2004-03-19 08:26:19 51°9.534 2°37.77 252.4 13.8 250 12.7
2004-03-19 08:26:25 51°9.526 2°37.735 252.5 13.8 250 12.7
2004-03-19 08:26:29 51°9.521 2°37.713 252.3 13.8 249 12.7
2004-03-19 08:26:34 51°9.514 2°37.684 252.3 13.8 250 12.7
2004-03-19 08:26:39 51°9.507 2°37.656 252.4 13.8 249 12.8
2004-03-19 08:26:43 51°9.502 2°37.633 252.3 13.8 250 12.8
2004-03-19 08:26:49 51°9.494 2°37.599 252.2 13.8 249 12.8
2004-03-19 08:26:54 51°9.487 2°37.57 252.2 13.8 250 12.8
2004-03-19 08:26:59 51°9.48 2°37.541 252.5 13.8 250 12.9
2004-03-19 08:27:01 51°9.478 2°37.53 252.6 13.8 250 12.9
2004-03-19 08:27:09 51°9.467 2°37.484 252.5 13.8 249 12.9
2004-03-19 08:27:14 51°9.46 2°37.456 252.1 13.8 250 13
2004-03-19 08:27:19 51°9.453 2°37.427 252.3 13.8 250 13
2004-03-19 08:27:25 51°9.445 2°37.393 252.3 13.8 250 13
2004-03-19 08:27:29 51°9.44 2°37.37 252.3 13.8 249 13.1
2004-03-19 08:27:34 51°9.433 2°37.342 252 13.8 249 13.1
2004-03-19 08:27:39 51°9.426 2°37.313 251.8 13.8 249 13.2
2004-03-19 08:27:45 51°9.418 2°37.279 251.8 13.8 249 13.2
2004-03-19 08:27:49 51°9.413 2°37.256 252.2 13.8 250 13.4
2004-03-19 08:27:54 51°9.406 2°37.228 252.3 13.8 249 13.3
2004-03-19 08:27:59 51°9.399 2°37.199 252.1 13.8 250 13.5
2004-03-19 08:28:05 51°9.391 2°37.164 252.5 13.8 249 13.6
2004-03-19 08:28:09 51°9.386 2°37.141 252.4 13.8 249 13.6
2004-03-19 08:28:13 51°9.38 2°37.119 252.1 13.8 249 13.7
2004-03-19 08:28:19 51°9.372 2°37.085 251.8 13.8 249 13.7
2004-03-19 08:28:25 51°9.364 2°37.051 251.8 13.8 249 13.7
2004-03-19 08:28:29 51°9.359 2°37.028 251.8 13.8 249 13.8
2004-03-19 08:28:34 51°9.352 2°36.999 252.1 13.8 250 13.8
2004-03-19 08:28:39 51°9.345 2°36.971 252.2 13.8 249 13.9
2004-03-19 08:28:44 51°9.338 2°36.942 252.2 13.8 249 14
2004-03-19 08:28:49 51°9.331 2°36.914 252 13.8 250 14
2004-03-19 08:28:54 51°9.325 2°36.885 252.4 13.8 250 14.2
2004-03-19 08:28:59 51°9.318 2°36.856 252.5 13.8 250 14.1
2004-03-19 08:29:05 51°9.31 2°36.822 252.5 13.8 250 14.3
2004-03-19 08:29:09 51°9.305 2°36.799 252.6 13.8 250 14.4
2004-03-19 08:29:14 51°9.299 2°36.77 252.6 13.8 250 14.4
2004-03-19 08:29:19 51°9.292 2°36.742 252.5 13.8 250 14.5
2004-03-19 08:29:24 51°9.285 2°36.713 252.4 13.8 250 14.6
2004-03-19 08:29:29 51°9.279 2°36.685 252.3 13.8 250 14.7
2004-03-19 08:29:34 51°9.272 2°36.656 252.2 13.8 250 14.7
2004-03-19 08:29:39 51°9.266 2°36.628 252.2 13.8 250 14.8
2004-03-19 08:29:45 51°9.258 2°36.594 252.3 13.8 250 14.9
2004-03-19 08:29:49 51°9.253 2°36.571 252.5 13.8 250 14.9
2004-03-19 08:29:54 51°9.246 2°36.542 252.3 13.7 250 15
2004-03-19 08:29:59 51°9.24 2°36.514 252.3 13.7 250 15.2
2004-03-19 08:30:04 51°9.234 2°36.485 252.4 13.7 251 15.1
2004-03-19 08:30:09 51°9.227 2°36.457 252.7 13.7 250 15.2
2004-03-19 08:30:13 51°9.222 2°36.434 252.7 13.7 250 15.2
2004-03-19 08:30:19 51°9.214 2°36.4 252.3 13.7 250 15.3
2004-03-19 08:30:25 51°9.207 2°36.366 252.2 13.7 250 15.3
2004-03-19 08:30:29 51°9.202 2°36.344 252.1 13.7 250 15.3
2004-03-19 08:30:34 51°9.195 2°36.316 252.5 13.7 250 15.4
2004-03-19 08:30:39 51°9.189 2°36.287 252.3 13.7 250 15.5
2004-03-19 08:30:44 51°9.182 2°36.259 252.3 13.7 250 15.6
2004-03-19 08:30:49 51°9.175 2°36.231 251.8 13.7 248 15.5
2004-03-19 08:30:54 51°9.168 2°36.203 250.7 13.7 248 15.5
2004-03-19 08:30:59 51°9.161 2°36.175 250.4 13.7 248 15.5
2004-03-19 08:31:01 51°9.158 2°36.164 249.9 13.7 247 15.6
2004-03-19 08:31:09 51°9.147 2°36.12 249.9 13.7 248 15.6
2004-03-19 08:31:14 51°9.14 2°36.092 250 13.7 248 15.7
2004-03-19 08:31:19 51°9.132 2°36.063 250 13.7 248 15.7
2004-03-19 08:31:25 51°9.124 2°36.03 250 13.7 248 15.7
2004-03-19 08:31:29 51°9.118 2°36.007 250.2 13.7 248 15.8
2004-03-19 08:31:34 51°9.111 2°35.979 250.2 13.7 248 15.8
2004-03-19 08:31:39 51°9.103 2°35.951 250.2 13.7 248 15.9
2004-03-19 08:31:45 51°9.095 2°35.917 250.2 13.7 248 15.9
2004-03-19 08:31:49 51°9.089 2°35.895 250.2 13.7 248 16
2004-03-19 08:31:54 51°9.082 2°35.867 250 13.7 248 16
2004-03-19 08:31:59 51°9.075 2°35.84 250 13.7 248 16
2004-03-19 08:32:03 51°9.069 2°35.817 250 13.7 247 16.1
2004-03-19 08:32:09 51°9.06 2°35.784 249.8 13.7 248 16.1
2004-03-19 08:32:14 51°9.053 2°35.756 249.8 13.7 248 16.2
2004-03-19 08:32:19 51°9.046 2°35.728 250 13.6 248 16.3
2004-03-19 08:32:25 51°9.038 2°35.695 250 13.7 248 16.2
2004-03-19 08:32:29 51°9.032 2°35.673 250.1 13.7 248 16.3
2004-03-19 08:32:34 51°9.025 2°35.645 250.1 13.7 248 16.3
2004-03-19 08:32:39 51°9.018 2°35.616 250.3 13.7 249 16.4
2004-03-19 08:32:45 51°9.01 2°35.583 250.5 13.7 248 16.2
2004-03-19 08:32:49 51°9.004 2°35.56 250.4 13.7 248 16.4
2004-03-19 08:32:54 51°8.997 2°35.532 250.4 13.6 248 16.3
2004-03-19 08:32:59 51°8.99 2°35.505 250 13.7 248 16.3
2004-03-19 08:33:05 51°8.982 2°35.471 250.2 13.7 249 16.3
2004-03-19 08:33:09 51°8.976 2°35.448 250.2 13.7 248 16.3
2004-03-19 08:33:14 51°8.969 2°35.421 250.1 13.7 248 16.4
2004-03-19 08:33:19 51°8.962 2°35.393 250.2 13.7 248 16.4
2004-03-19 08:33:25 51°8.953 2°35.359 249.8 13.7 247 16.5
2004-03-19 08:33:29 51°8.947 2°35.337 249.6 13.7 248 16.5
2004-03-19 08:33:34 51°8.94 2°35.309 249.5 13.7 248 16.5
2004-03-19 08:33:39 51°8.933 2°35.281 249.3 13.7 248 16.6
2004-03-19 08:33:43 51°8.927 2°35.259 249.6 13.7 248 16.5
2004-03-19 08:33:49 51°8.918 2°35.225 249.6 13.6 248 16.5
2004-03-19 08:33:54 51°8.911 2°35.197 249.8 13.6 248 16.5
2004-03-19 08:33:59 51°8.904 2°35.169 250.4 13.6 248 16.5
2004-03-19 08:34:05 51°8.895 2°35.135 250.4 13.6 248 16.5
2004-03-19 08:34:09 51°8.889 2°35.112 250.3 13.6 248 16.6
2004-03-19 08:34:14 51°8.882 2°35.084 250.1 13.6 248 16.7
2004-03-19 08:34:19 51°8.875 2°35.057 250.2 13.6 248 16.6
2004-03-19 08:34:24 51°8.868 2°35.029 250.1 13.6 248 16.7
2004-03-19 08:34:29 51°8.861 2°35 250 13.6 248 16.7
2004-03-19 08:34:34 51°8.853 2°34.972 249.9 13.6 248 16.7
2004-03-19 08:34:39 51°8.846 2°34.945 249.8 13.6 248 16.8
2004-03-19 08:34:45 51°8.838 2°34.912 250 13.6 248 16.8
2004-03-19 08:34:49 51°8.832 2°34.889 249.9 13.7 248 16.8
2004-03-19 08:34:54 51°8.825 2°34.861 250 13.6 248 16.8
2004-03-19 08:34:59 51°8.818 2°34.833 250.4 13.6 248 16.8
2004-03-19 08:35:03 51°8.812 2°34.811 250.4 13.7 248 16.7
2004-03-19 08:35:09 51°8.804 2°34.777 250.7 13.6 248 16.8
2004-03-19 08:35:14 51°8.797 2°34.749 250.6 13.6 249 16.7
2004-03-19 08:35:19 51°8.79 2°34.722 250.7 13.6 249 16.8
2004-03-19 08:35:25 51°8.782 2°34.688 250.9 13.6 249 17
2004-03-19 08:35:29 51°8.777 2°34.666 250.8 13.6 248 17
2004-03-19 08:35:34 51°8.769 2°34.638 250.6 13.6 248 17
2004-03-19 08:35:39 51°8.763 2°34.611 250.3 13.7 248 17.1
2004-03-19 08:35:45 51°8.754 2°34.577 250.2 13.7 248 17
2004-03-19 08:35:49 51°8.748 2°34.555 250.2 13.7 248 17.1
2004-03-19 08:35:54 51°8.741 2°34.527 250.1 13.7 248 17.2
2004-03-19 08:35:59 51°8.733 2°34.499 250 13.7 247 17
2004-03-19 08:36:05 51°8.725 2°34.466 249.7 13.7 247 17.2
2004-03-19 08:36:09 51°8.719 2°34.443 249.8 13.7 247 17.2
2004-03-19 08:36:14 51°8.712 2°34.416 249.7 13.7 248 17.3